createdAt,value
2022-10-04T00:03:42.352Z,76.07
2022-10-04T00:14:16.499Z,76.20
2022-10-04T00:25:23.359Z,76.32
2022-10-04T00:35:52.538Z,76.42
2022-10-04T00:46:25.600Z,76.52
2022-10-04T00:56:56.621Z,76.38
2022-10-04T01:07:29.108Z,76.56
2022-10-04T01:18:29.877Z,76.43
2022-10-04T01:29:01.029Z,76.57
2022-10-04T01:39:30.298Z,76.71
2022-10-04T01:50:02.989Z,76.60
2022-10-04T02:00:32.115Z,76.74
2022-10-04T02:11:01.853Z,76.69
2022-10-04T02:21:30.162Z,76.55
2022-10-04T02:32:15.765Z,76.66
2022-10-04T02:42:48.547Z,76.81
2022-10-04T02:53:27.034Z,76.83
2022-10-04T03:03:56.977Z,76.67
2022-10-04T03:14:29.531Z,76.76
2022-10-04T03:24:59.338Z,76.59
2022-10-04T03:35:34.403Z,76.62
2022-10-04T03:46:03.551Z,76.70
2022-10-04T03:56:35.363Z,76.93
2022-10-04T04:07:07.865Z,77.10
2022-10-04T04:17:44.033Z,77.00
2022-10-04T04:28:22.573Z,76.85
2022-10-04T04:39:07.802Z,76.60
2022-10-04T04:49:39.949Z,76.41
2022-10-04T05:00:17.342Z,76.26
2022-10-04T05:10:51.040Z,76.14
2022-10-04T05:21:25.310Z,75.73
2022-10-04T05:32:03.522Z,75.57
2022-10-04T05:42:39.168Z,75.06
2022-10-04T05:53:20.996Z,74.67
2022-10-04T06:04:05.127Z,74.47
2022-10-04T06:15:09.529Z,74.75
2022-10-04T06:25:43.514Z,74.95
2022-10-04T06:36:31.797Z,74.82
2022-10-04T06:47:10.665Z,74.62
2022-10-04T06:58:00.569Z,74.86
2022-10-04T07:08:38.776Z,74.83
2022-10-04T07:19:29.388Z,74.50
2022-10-04T07:29:59.376Z,74.47
2022-10-04T07:40:36.194Z,74.73
2022-10-04T07:51:14.185Z,73.44
2022-10-04T08:01:48.850Z,72.55
2022-10-04T08:12:24.655Z,72.21
2022-10-04T08:23:03.131Z,72.15
2022-10-04T08:33:49.854Z,71.91
2022-10-04T08:44:52.442Z,71.71
2022-10-04T08:55:37.410Z,71.36
2022-10-04T09:06:34.797Z,71.02
2022-10-04T09:17:22.267Z,70.81
2022-10-04T09:28:15.516Z,70.41
2022-10-04T09:39:28.888Z,70.22
2022-10-04T09:50:27.618Z,70.29
2022-10-04T10:01:09.106Z,69.98
2022-10-04T10:12:04.090Z,69.12
2022-10-04T10:22:57.757Z,68.51
2022-10-04T10:34:02.120Z,67.85
2022-10-04T10:45:04.721Z,66.38
2022-10-04T10:56:08.743Z,65.97
2022-10-04T11:07:05.086Z,65.25
2022-10-04T11:17:50.249Z,64.88
2022-10-04T11:28:27.761Z,63.86
2022-10-04T11:39:13.615Z,63.80
2022-10-04T11:49:56.845Z,63.64
2022-10-04T12:00:27.229Z,62.86
2022-10-04T12:11:25.688Z,62.84
2022-10-04T12:22:05.723Z,61.74
2022-10-04T12:32:40.951Z,60.30
2022-10-04T12:43:15.035Z,59.83
2022-10-04T12:53:57.873Z,59.19
2022-10-04T13:04:36.266Z,59.39
2022-10-04T13:15:21.185Z,59.67
2022-10-04T13:26:06.162Z,59.59
2022-10-04T13:36:54.404Z,59.17
2022-10-04T13:47:55.597Z,59.00
2022-10-04T13:58:36.111Z,58.79
2022-10-04T14:09:42.244Z,58.87
2022-10-04T14:21:00.995Z,58.49
2022-10-04T14:31:57.658Z,58.72
2022-10-04T14:43:00.183Z,58.55
2022-10-04T14:53:35.321Z,58.34
2022-10-04T15:04:28.335Z,58.58
2022-10-04T15:15:29.410Z,59.31
2022-10-04T15:26:03.244Z,59.71
2022-10-04T15:36:49.414Z,60.83
2022-10-04T15:47:26.933Z,61.29
2022-10-04T15:58:24.238Z,61.36
2022-10-04T16:09:15.039Z,61.45
2022-10-04T16:19:59.337Z,61.70
2022-10-04T16:30:31.219Z,61.99
2022-10-04T16:41:29.194Z,62.09
2022-10-04T16:52:27.577Z,62.71
2022-10-04T17:03:09.214Z,63.90
2022-10-04T17:13:50.810Z,63.90
2022-10-04T17:24:34.816Z,64.06
2022-10-04T17:35:17.170Z,63.97
2022-10-04T17:46:18.878Z,63.98
2022-10-04T17:56:50.686Z,64.24
2022-10-04T18:07:22.591Z,64.32
2022-10-04T18:17:51.958Z,64.20
2022-10-04T18:28:27.241Z,64.02
2022-10-04T18:39:24.737Z,64.64
2022-10-04T18:50:03.259Z,64.51
2022-10-04T19:00:57.123Z,64.35
2022-10-04T19:11:40.477Z,64.48
2022-10-04T19:22:22.360Z,64.68
2022-10-04T19:33:04.796Z,64.70
2022-10-04T19:43:48.446Z,64.30
2022-10-04T19:54:21.064Z,65.49
2022-10-04T20:04:50.220Z,65.69
2022-10-04T20:15:43.491Z,65.72
2022-10-04T20:26:32.374Z,65.34
2022-10-04T20:37:00.488Z,64.94
2022-10-04T20:47:40.958Z,64.56
2022-10-04T20:58:32.415Z,65.00
2022-10-04T21:09:00.553Z,64.83
2022-10-04T21:19:48.192Z,64.78
2022-10-04T21:30:19.714Z,64.54
2022-10-04T21:40:47.939Z,64.39
2022-10-04T21:51:16.177Z,64.20
2022-10-04T22:01:44.140Z,63.68
2022-10-04T22:12:12.078Z,63.95
2022-10-04T22:22:40.158Z,63.84
2022-10-04T22:33:35.591Z,63.72
2022-10-04T22:44:13.486Z,63.70
2022-10-04T22:54:44.843Z,63.65
2022-10-04T23:05:18.524Z,63.64
2022-10-04T23:15:46.694Z,63.64
2022-10-04T23:26:21.130Z,63.79
2022-10-04T23:36:49.980Z,63.46
2022-10-04T23:47:20.933Z,63.46
2022-10-04T23:57:49.393Z,63.09
